sensor_id;sensor_type;location;lat;lon;timestamp;temperature;humidity
9371;DHT22;4725;48.384;8.984;2023-05-10T00:00:40;11.90;99.90
9371;DHT22;4725;48.384;8.984;2023-05-10T00:03:07;11.90;99.90
9371;DHT22;4725;48.384;8.984;2023-05-10T00:05:34;11.90;99.90
9371;DHT22;4725;48.384;8.984;2023-05-10T00:08:01;11.90;99.90
9371;DHT22;4725;48.384;8.984;2023-05-10T00:10:29;11.90;99.90
9371;DHT22;4725;48.384;8.984;2023-05-10T00:12:56;11.80;99.90
9371;DHT22;4725;48.384;8.984;2023-05-10T00:15:23;11.80;99.90
9371;DHT22;4725;48.384;8.984;2023-05-10T00:17:50;11.80;99.90
9371;DHT22;4725;48.384;8.984;2023-05-10T00:20:17;11.80;99.90
9371;DHT22;4725;48.384;8.984;2023-05-10T00:22:44;11.80;99.90
9371;DHT22;4725;48.384;8.984;2023-05-10T00:25:10;11.80;99.90
9371;DHT22;4725;48.384;8.984;2023-05-10T00:27:39;11.70;99.90
9371;DHT22;4725;48.384;8.984;2023-05-10T00:30:06;11.80;99.90
9371;DHT22;4725;48.384;8.984;2023-05-10T00:32:33;11.70;99.90
9371;DHT22;4725;48.384;8.984;2023-05-10T00:35:00;11.70;99.90
9371;DHT22;4725;48.384;8.984;2023-05-10T00:37:27;11.70;99.90
9371;DHT22;4725;48.384;8.984;2023-05-10T00:39:54;11.70;99.90
9371;DHT22;4725;48.384;8.984;2023-05-10T00:42:21;11.70;99.90
9371;DHT22;4725;48.384;8.984;2023-05-10T00:44:50;11.60;99.90
9371;DHT22;4725;48.384;8.984;2023-05-10T00:47:17;11.60;99.90
9371;DHT22;4725;48.384;8.984;2023-05-10T00:49:44;11.60;99.90
9371;DHT22;4725;48.384;8.984;2023-05-10T00:52:12;8.90;99.90
9371;DHT22;4725;48.384;8.984;2023-05-10T00:54:39;11.40;99.90
9371;DHT22;4725;48.384;8.984;2023-05-10T00:57:06;11.40;99.90
9371;DHT22;4725;48.384;8.984;2023-05-10T00:59:33;11.40;99.90
9371;DHT22;4725;48.384;8.984;2023-05-10T01:02:01;11.40;99.90
9371;DHT22;4725;48.384;8.984;2023-05-10T01:04:28;11.40;99.90
9371;DHT22;4725;48.384;8.984;2023-05-10T01:06:56;11.40;99.90
9371;DHT22;4725;48.384;8.984;2023-05-10T01:09:23;11.30;99.90
9371;DHT22;4725;48.384;8.984;2023-05-10T01:11:51;11.30;99.90
9371;DHT22;4725;48.384;8.984;2023-05-10T01:14:19;11.30;99.90
9371;DHT22;4725;48.384;8.984;2023-05-10T01:16:47;11.30;99.90
9371;DHT22;4725;48.384;8.984;2023-05-10T01:19:19;11.30;99.90
9371;DHT22;4725;48.384;8.984;2023-05-10T01:21:53;11.30;99.90
9371;DHT22;4725;48.384;8.984;2023-05-10T01:24:47;11.30;99.90
9371;DHT22;4725;48.384;8.984;2023-05-10T01:30:58;11.30;99.90
9371;DHT22;4725;48.384;8.984;2023-05-10T01:33:35;11.30;99.90
9371;DHT22;4725;48.384;8.984;2023-05-10T01:36:08;11.20;99.90
9371;DHT22;4725;48.384;8.984;2023-05-10T01:38:42;11.20;99.90
9371;DHT22;4725;48.384;8.984;2023-05-10T01:41:16;11.20;99.90
9371;DHT22;4725;48.384;8.984;2023-05-10T01:43:50;11.20;99.90
9371;DHT22;4725;48.384;8.984;2023-05-10T01:46:26;11.20;99.90
9371;DHT22;4725;48.384;8.984;2023-05-10T01:48:57;11.20;99.90
9371;DHT22;4725;48.384;8.984;2023-05-10T01:51:29;11.10;99.90
9371;DHT22;4725;48.384;8.984;2023-05-10T01:54:00;11.10;99.90
9371;DHT22;4725;48.384;8.984;2023-05-10T01:56:29;11.00;99.90
9371;DHT22;4725;48.384;8.984;2023-05-10T01:58:58;11.00;99.90
9371;DHT22;4725;48.384;8.984;2023-05-10T02:01:27;11.00;99.90
9371;DHT22;4725;48.384;8.984;2023-05-10T02:03:56;11.00;99.90
9371;DHT22;4725;48.384;8.984;2023-05-10T02:06:24;10.90;99.90
9371;DHT22;4725;48.384;8.984;2023-05-10T02:08:52;10.90;99.90
9371;DHT22;4725;48.384;8.984;2023-05-10T02:11:20;10.90;99.90
9371;DHT22;4725;48.384;8.984;2023-05-10T02:13:49;10.90;99.90
9371;DHT22;4725;48.384;8.984;2023-05-10T02:16:17;10.90;99.90
9371;DHT22;4725;48.384;8.984;2023-05-10T02:18:45;10.90;99.90
9371;DHT22;4725;48.384;8.984;2023-05-10T02:21:14;10.90;99.90
9371;DHT22;4725;48.384;8.984;2023-05-10T02:23:43;10.80;99.90
9371;DHT22;4725;48.384;8.984;2023-05-10T02:26:11;10.90;99.90
9371;DHT22;4725;48.384;8.984;2023-05-10T02:28:40;10.90;99.90
9371;DHT22;4725;48.384;8.984;2023-05-10T02:31:07;10.80;99.90
9371;DHT22;4725;48.384;8.984;2023-05-10T02:33:37;10.80;99.90
9371;DHT22;4725;48.384;8.984;2023-05-10T02:36:06;10.70;99.90
9371;DHT22;4725;48.384;8.984;2023-05-10T02:38:36;10.80;99.90
9371;DHT22;4725;48.384;8.984;2023-05-10T02:41:05;10.80;99.90
9371;DHT22;4725;48.384;8.984;2023-05-10T02:43:33;10.70;99.90
9371;DHT22;4725;48.384;8.984;2023-05-10T02:46:01;10.70;99.90
9371;DHT22;4725;48.384;8.984;2023-05-10T02:48:28;10.70;99.90
9371;DHT22;4725;48.384;8.984;2023-05-10T02:50:57;10.70;99.90
9371;DHT22;4725;48.384;8.984;2023-05-10T02:53:31;10.70;99.90
9371;DHT22;4725;48.384;8.984;2023-05-10T02:56:02;10.60;99.90
9371;DHT22;4725;48.384;8.984;2023-05-10T02:58:29;10.60;99.90
9371;DHT22;4725;48.384;8.984;2023-05-10T03:00:56;10.60;99.90
9371;DHT22;4725;48.384;8.984;2023-05-10T03:03:23;10.50;99.90
9371;DHT22;4725;48.384;8.984;2023-05-10T03:05:50;10.40;99.90
9371;DHT22;4725;48.384;8.984;2023-05-10T03:08:19;10.40;99.90
9371;DHT22;4725;48.384;8.984;2023-05-10T03:11:08;10.30;99.90
9371;DHT22;4725;48.384;8.984;2023-05-10T03:13:57;10.30;99.90
9371;DHT22;4725;48.384;8.984;2023-05-10T03:16:29;10.30;99.90
9371;DHT22;4725;48.384;8.984;2023-05-10T03:19:10;10.30;99.90
9371;DHT22;4725;48.384;8.984;2023-05-10T03:21:41;10.30;99.90
9371;DHT22;4725;48.384;8.984;2023-05-10T03:24:09;10.30;99.90
9371;DHT22;4725;48.384;8.984;2023-05-10T03:26:40;10.30;99.90
9371;DHT22;4725;48.384;8.984;2023-05-10T03:29:08;10.30;99.90
9371;DHT22;4725;48.384;8.984;2023-05-10T03:31:38;10.40;99.90
9371;DHT22;4725;48.384;8.984;2023-05-10T03:34:05;10.50;99.90
9371;DHT22;4725;48.384;8.984;2023-05-10T03:36:32;10.40;99.90
9371;DHT22;4725;48.384;8.984;2023-05-10T03:38:59;10.40;99.90
9371;DHT22;4725;48.384;8.984;2023-05-10T03:41:26;10.40;99.90
9371;DHT22;4725;48.384;8.984;2023-05-10T03:43:54;10.30;99.90
9371;DHT22;4725;48.384;8.984;2023-05-10T03:46:21;10.20;99.90
9371;DHT22;4725;48.384;8.984;2023-05-10T03:48:48;10.20;99.90
9371;DHT22;4725;48.384;8.984;2023-05-10T03:51:15;10.10;99.90
9371;DHT22;4725;48.384;8.984;2023-05-10T03:53:42;10.10;99.90
9371;DHT22;4725;48.384;8.984;2023-05-10T03:56:10;10.20;99.90
9371;DHT22;4725;48.384;8.984;2023-05-10T03:58:37;10.10;99.90
9371;DHT22;4725;48.384;8.984;2023-05-10T04:01:05;10.20;99.90
9371;DHT22;4725;48.384;8.984;2023-05-10T04:03:32;10.20;99.90
9371;DHT22;4725;48.384;8.984;2023-05-10T04:06:01;10.30;99.90
9371;DHT22;4725;48.384;8.984;2023-05-10T04:08:28;10.30;99.90
9371;DHT22;4725;48.384;8.984;2023-05-10T04:11:04;10.30;99.90
9371;DHT22;4725;48.384;8.984;2023-05-10T04:13:30;10.30;99.90
9371;DHT22;4725;48.384;8.984;2023-05-10T04:15:57;10.30;99.90
9371;DHT22;4725;48.384;8.984;2023-05-10T04:18:26;10.30;99.90
9371;DHT22;4725;48.384;8.984;2023-05-10T04:20:52;10.30;99.90
9371;DHT22;4725;48.384;8.984;2023-05-10T04:28:13;10.40;99.90
9371;DHT22;4725;48.384;8.984;2023-05-10T04:30:40;10.40;99.90
9371;DHT22;4725;48.384;8.984;2023-05-10T04:33:07;10.50;99.90
9371;DHT22;4725;48.384;8.984;2023-05-10T04:35:36;10.50;99.90
9371;DHT22;4725;48.384;8.984;2023-05-10T04:38:03;10.40;99.90
9371;DHT22;4725;48.384;8.984;2023-05-10T04:40:29;10.50;99.90
9371;DHT22;4725;48.384;8.984;2023-05-10T04:42:56;10.50;99.90
9371;DHT22;4725;48.384;8.984;2023-05-10T04:45:23;10.50;99.90
9371;DHT22;4725;48.384;8.984;2023-05-10T04:47:50;10.50;99.90
9371;DHT22;4725;48.384;8.984;2023-05-10T04:50:17;10.50;99.90
9371;DHT22;4725;48.384;8.984;2023-05-10T04:52:46;10.50;99.90
9371;DHT22;4725;48.384;8.984;2023-05-10T04:55:13;10.60;99.90
9371;DHT22;4725;48.384;8.984;2023-05-10T04:57:39;10.60;99.90
9371;DHT22;4725;48.384;8.984;2023-05-10T05:00:07;10.60;99.90
9371;DHT22;4725;48.384;8.984;2023-05-10T05:05:02;10.70;99.90
9371;DHT22;4725;48.384;8.984;2023-05-10T05:07:28;10.70;99.90
9371;DHT22;4725;48.384;8.984;2023-05-10T05:09:57;10.70;99.90
9371;DHT22;4725;48.384;8.984;2023-05-10T05:12:24;10.80;99.90
9371;DHT22;4725;48.384;8.984;2023-05-10T05:14:51;10.80;99.90
9371;DHT22;4725;48.384;8.984;2023-05-10T05:17:18;10.70;99.90
9371;DHT22;4725;48.384;8.984;2023-05-10T05:19:45;10.80;99.90
9371;DHT22;4725;48.384;8.984;2023-05-10T05:22:11;10.80;99.90
9371;DHT22;4725;48.384;8.984;2023-05-10T05:24:38;10.80;99.90
9371;DHT22;4725;48.384;8.984;2023-05-10T05:27:07;10.80;99.90
9371;DHT22;4725;48.384;8.984;2023-05-10T05:29:33;10.80;99.90
9371;DHT22;4725;48.384;8.984;2023-05-10T05:32:01;10.80;99.90
9371;DHT22;4725;48.384;8.984;2023-05-10T05:34:27;10.90;99.90
9371;DHT22;4725;48.384;8.984;2023-05-10T05:36:54;10.90;99.90
9371;DHT22;4725;48.384;8.984;2023-05-10T05:39:21;10.90;99.90
9371;DHT22;4725;48.384;8.984;2023-05-10T05:41:48;10.90;99.90
9371;DHT22;4725;48.384;8.984;2023-05-10T05:44:16;10.90;99.90
9371;DHT22;4725;48.384;8.984;2023-05-10T05:46:43;11.00;99.90
9371;DHT22;4725;48.384;8.984;2023-05-10T05:49:10;11.10;99.90
9371;DHT22;4725;48.384;8.984;2023-05-10T05:51:37;11.10;99.90
9371;DHT22;4725;48.384;8.984;2023-05-10T05:54:04;11.10;99.90
9371;DHT22;4725;48.384;8.984;2023-05-10T05:56:31;11.10;99.90
9371;DHT22;4725;48.384;8.984;2023-05-10T05:58:58;11.10;99.90
9371;DHT22;4725;48.384;8.984;2023-05-10T06:01:26;11.20;99.90
9371;DHT22;4725;48.384;8.984;2023-05-10T06:03:53;11.20;99.90
9371;DHT22;4725;48.384;8.984;2023-05-10T06:06:20;11.30;99.90
9371;DHT22;4725;48.384;8.984;2023-05-10T06:08:47;11.30;99.90
9371;DHT22;4725;48.384;8.984;2023-05-10T06:11:14;11.40;99.90
9371;DHT22;4725;48.384;8.984;2023-05-10T06:13:41;11.50;99.90
9371;DHT22;4725;48.384;8.984;2023-05-10T06:16:08;11.50;99.90
9371;DHT22;4725;48.384;8.984;2023-05-10T06:18:36;11.60;99.90
9371;DHT22;4725;48.384;8.984;2023-05-10T06:21:03;11.60;99.90
9371;DHT22;4725;48.384;8.984;2023-05-10T06:23:30;11.60;99.90
9371;DHT22;4725;48.384;8.984;2023-05-10T06:25:57;11.60;99.90
9371;DHT22;4725;48.384;8.984;2023-05-10T06:28:24;11.70;99.90
9371;DHT22;4725;48.384;8.984;2023-05-10T06:33:18;11.80;99.90
9371;DHT22;4725;48.384;8.984;2023-05-10T06:35:46;11.80;99.90
9371;DHT22;4725;48.384;8.984;2023-05-10T06:38:13;11.80;99.90
9371;DHT22;4725;48.384;8.984;2023-05-10T06:40:41;11.90;99.90
9371;DHT22;4725;48.384;8.984;2023-05-10T06:43:08;11.80;99.90
9371;DHT22;4725;48.384;8.984;2023-05-10T06:45:35;11.70;99.90
9371;DHT22;4725;48.384;8.984;2023-05-10T06:48:02;11.70;99.90
9371;DHT22;4725;48.384;8.984;2023-05-10T06:50:29;11.60;99.90
9371;DHT22;4725;48.384;8.984;2023-05-10T06:52:58;11.60;99.90
9371;DHT22;4725;48.384;8.984;2023-05-10T06:55:24;11.60;99.90
9371;DHT22;4725;48.384;8.984;2023-05-10T06:57:51;11.60;99.90
9371;DHT22;4725;48.384;8.984;2023-05-10T07:00:19;11.70;99.90
9371;DHT22;4725;48.384;8.984;2023-05-10T07:02:46;11.80;99.90
9371;DHT22;4725;48.384;8.984;2023-05-10T07:05:13;11.90;99.90
9371;DHT22;4725;48.384;8.984;2023-05-10T07:07:40;11.90;99.90
9371;DHT22;4725;48.384;8.984;2023-05-10T07:10:09;11.80;99.90
9371;DHT22;4725;48.384;8.984;2023-05-10T07:12:36;11.70;99.90
9371;DHT22;4725;48.384;8.984;2023-05-10T07:15:04;11.70;99.90
9371;DHT22;4725;48.384;8.984;2023-05-10T07:17:31;11.70;99.90
9371;DHT22;4725;48.384;8.984;2023-05-10T07:19:59;11.70;99.90
9371;DHT22;4725;48.384;8.984;2023-05-10T07:22:26;11.70;99.90
9371;DHT22;4725;48.384;8.984;2023-05-10T07:24:53;11.70;99.90
9371;DHT22;4725;48.384;8.984;2023-05-10T07:27:21;11.70;99.90
9371;DHT22;4725;48.384;8.984;2023-05-10T07:29:48;11.70;99.90
9371;DHT22;4725;48.384;8.984;2023-05-10T07:34:42;11.60;99.90
9371;DHT22;4725;48.384;8.984;2023-05-10T07:37:09;11.60;99.90
9371;DHT22;4725;48.384;8.984;2023-05-10T07:39:35;11.60;99.90
9371;DHT22;4725;48.384;8.984;2023-05-10T07:42:02;11.60;99.90
9371;DHT22;4725;48.384;8.984;2023-05-10T07:44:31;11.80;99.90
9371;DHT22;4725;48.384;8.984;2023-05-10T07:46:58;11.90;99.90
9371;DHT22;4725;48.384;8.984;2023-05-10T07:49:25;12.00;99.90
9371;DHT22;4725;48.384;8.984;2023-05-10T07:51:52;12.00;99.90
9371;DHT22;4725;48.384;8.984;2023-05-10T07:54:19;12.20;99.90
9371;DHT22;4725;48.384;8.984;2023-05-10T07:56:47;12.40;99.90
9371;DHT22;4725;48.384;8.984;2023-05-10T07:59:16;12.40;99.90
9371;DHT22;4725;48.384;8.984;2023-05-10T08:01:44;12.50;99.90
9371;DHT22;4725;48.384;8.984;2023-05-10T08:04:11;12.70;99.90
9371;DHT22;4725;48.384;8.984;2023-05-10T08:06:38;13.10;99.90
9371;DHT22;4725;48.384;8.984;2023-05-10T08:09:05;13.30;99.90
9371;DHT22;4725;48.384;8.984;2023-05-10T08:11:33;13.30;99.90
9371;DHT22;4725;48.384;8.984;2023-05-10T08:13:59;13.20;99.90
9371;DHT22;4725;48.384;8.984;2023-05-10T08:16:26;13.20;99.90
9371;DHT22;4725;48.384;8.984;2023-05-10T08:18:55;13.20;99.90
9371;DHT22;4725;48.384;8.984;2023-05-10T08:23:49;13.20;99.90
9371;DHT22;4725;48.384;8.984;2023-05-10T08:26:16;13.40;99.90
9371;DHT22;4725;48.384;8.984;2023-05-10T08:28:43;13.40;99.90
9371;DHT22;4725;48.384;8.984;2023-05-10T08:31:10;13.50;99.90
9371;DHT22;4725;48.384;8.984;2023-05-10T08:33:37;13.70;99.90
9371;DHT22;4725;48.384;8.984;2023-05-10T08:38:32;14.30;99.90
9371;DHT22;4725;48.384;8.984;2023-05-10T08:41:00;14.30;99.90
9371;DHT22;4725;48.384;8.984;2023-05-10T08:43:28;14.00;99.90
9371;DHT22;4725;48.384;8.984;2023-05-10T08:45:55;14.20;99.90
9371;DHT22;4725;48.384;8.984;2023-05-10T08:48:24;14.20;99.90
9371;DHT22;4725;48.384;8.984;2023-05-10T08:50:53;14.10;99.90
9371;DHT22;4725;48.384;8.984;2023-05-10T08:53:24;14.00;99.90
9371;DHT22;4725;48.384;8.984;2023-05-10T08:55:53;13.90;99.90
9371;DHT22;4725;48.384;8.984;2023-05-10T08:58:20;14.00;99.90
9371;DHT22;4725;48.384;8.984;2023-05-10T09:00:48;14.10;99.90
9371;DHT22;4725;48.384;8.984;2023-05-10T09:03:16;14.20;99.90
9371;DHT22;4725;48.384;8.984;2023-05-10T09:08:11;14.10;99.90
9371;DHT22;4725;48.384;8.984;2023-05-10T09:10:41;14.10;99.90
9371;DHT22;4725;48.384;8.984;2023-05-10T09:13:10;14.20;99.90
9371;DHT22;4725;48.384;8.984;2023-05-10T09:15:37;14.30;99.90
9371;DHT22;4725;48.384;8.984;2023-05-10T09:18:04;14.30;99.90
9371;DHT22;4725;48.384;8.984;2023-05-10T09:20:31;14.10;99.90
9371;DHT22;4725;48.384;8.984;2023-05-10T09:22:58;13.90;99.90
9371;DHT22;4725;48.384;8.984;2023-05-10T09:25:25;13.80;99.90
9371;DHT22;4725;48.384;8.984;2023-05-10T09:27:53;13.20;99.90
9371;DHT22;4725;48.384;8.984;2023-05-10T09:30:25;13.20;99.90
9371;DHT22;4725;48.384;8.984;2023-05-10T09:32:52;13.10;99.90
9371;DHT22;4725;48.384;8.984;2023-05-10T09:35:21;12.90;99.90
9371;DHT22;4725;48.384;8.984;2023-05-10T09:37:50;13.00;99.90
9371;DHT22;4725;48.384;8.984;2023-05-10T09:40:18;13.00;99.90
9371;DHT22;4725;48.384;8.984;2023-05-10T09:42:53;13.00;99.90
9371;DHT22;4725;48.384;8.984;2023-05-10T09:45:21;13.00;99.90
9371;DHT22;4725;48.384;8.984;2023-05-10T09:47:48;13.00;99.90
9371;DHT22;4725;48.384;8.984;2023-05-10T09:50:15;13.20;99.90
9371;DHT22;4725;48.384;8.984;2023-05-10T09:52:47;13.50;99.90
9371;DHT22;4725;48.384;8.984;2023-05-10T09:55:15;14.10;99.90
9371;DHT22;4725;48.384;8.984;2023-05-10T09:57:42;14.00;99.90
9371;DHT22;4725;48.384;8.984;2023-05-10T10:00:17;14.20;99.90
9371;DHT22;4725;48.384;8.984;2023-05-10T10:02:45;14.90;99.90
9371;DHT22;4725;48.384;8.984;2023-05-10T10:05:13;15.10;99.90
9371;DHT22;4725;48.384;8.984;2023-05-10T10:07:41;15.40;99.90
9371;DHT22;4725;48.384;8.984;2023-05-10T10:10:08;15.60;99.90
9371;DHT22;4725;48.384;8.984;2023-05-10T10:12:38;15.40;99.90
9371;DHT22;4725;48.384;8.984;2023-05-10T10:15:07;15.90;99.90
9371;DHT22;4725;48.384;8.984;2023-05-10T10:17:36;15.90;99.90
9371;DHT22;4725;48.384;8.984;2023-05-10T10:20:05;16.10;99.90
9371;DHT22;4725;48.384;8.984;2023-05-10T10:22:33;16.20;99.90
9371;DHT22;4725;48.384;8.984;2023-05-10T10:24:59;16.70;99.90
9371;DHT22;4725;48.384;8.984;2023-05-10T10:27:32;16.90;99.90
9371;DHT22;4725;48.384;8.984;2023-05-10T10:30:06;17.10;99.90
9371;DHT22;4725;48.384;8.984;2023-05-10T10:35:45;19.40;99.90
9371;DHT22;4725;48.384;8.984;2023-05-10T10:38:12;17.90;99.90
9371;DHT22;4725;48.384;8.984;2023-05-10T10:40:39;18.00;99.90
9371;DHT22;4725;48.384;8.984;2023-05-10T10:43:22;17.70;99.90
9371;DHT22;4725;48.384;8.984;2023-05-10T10:46:11;17.70;99.90
9371;DHT22;4725;48.384;8.984;2023-05-10T10:48:40;17.90;99.90
9371;DHT22;4725;48.384;8.984;2023-05-10T10:51:07;17.60;99.90
9371;DHT22;4725;48.384;8.984;2023-05-10T10:53:34;17.40;99.90
9371;DHT22;4725;48.384;8.984;2023-05-10T10:56:07;18.30;99.90
9371;DHT22;4725;48.384;8.984;2023-05-10T10:58:35;17.90;99.90
9371;DHT22;4725;48.384;8.984;2023-05-10T11:01:13;17.10;99.90
9371;DHT22;4725;48.384;8.984;2023-05-10T11:04:17;17.00;99.90
9371;DHT22;4725;48.384;8.984;2023-05-10T11:09:12;16.90;99.90
9371;DHT22;4725;48.384;8.984;2023-05-10T11:11:50;16.50;99.90
9371;DHT22;4725;48.384;8.984;2023-05-10T11:14:20;16.50;99.90
9371;DHT22;4725;48.384;8.984;2023-05-10T11:16:47;15.10;99.90
9371;DHT22;4725;48.384;8.984;2023-05-10T11:19:17;14.50;99.90
9371;DHT22;4725;48.384;8.984;2023-05-10T11:21:45;14.20;99.90
9371;DHT22;4725;48.384;8.984;2023-05-10T11:24:14;14.20;99.90
9371;DHT22;4725;48.384;8.984;2023-05-10T11:26:41;14.60;99.90
9371;DHT22;4725;48.384;8.984;2023-05-10T11:31:42;14.80;99.90
9371;DHT22;4725;48.384;8.984;2023-05-10T11:34:09;14.90;99.90
9371;DHT22;4725;48.384;8.984;2023-05-10T11:36:37;14.70;99.90
9371;DHT22;4725;48.384;8.984;2023-05-10T11:39:05;14.80;99.90
9371;DHT22;4725;48.384;8.984;2023-05-10T11:41:32;14.70;99.90
9371;DHT22;4725;48.384;8.984;2023-05-10T11:43:59;14.50;99.90
9371;DHT22;4725;48.384;8.984;2023-05-10T11:46:27;13.50;99.90
9371;DHT22;4725;48.384;8.984;2023-05-10T11:48:57;13.10;99.90
9371;DHT22;4725;48.384;8.984;2023-05-10T11:51:26;12.90;99.90
9371;DHT22;4725;48.384;8.984;2023-05-10T11:53:55;12.90;99.90
9371;DHT22;4725;48.384;8.984;2023-05-10T11:56:23;12.70;99.90
9371;DHT22;4725;48.384;8.984;2023-05-10T11:58:56;12.60;99.90
9371;DHT22;4725;48.384;8.984;2023-05-10T12:01:23;12.60;99.90
9371;DHT22;4725;48.384;8.984;2023-05-10T12:03:52;12.50;99.90
9371;DHT22;4725;48.384;8.984;2023-05-10T12:06:19;12.60;99.90
9371;DHT22;4725;48.384;8.984;2023-05-10T12:08:47;12.50;99.90
9371;DHT22;4725;48.384;8.984;2023-05-10T12:11:19;12.30;99.90
9371;DHT22;4725;48.384;8.984;2023-05-10T12:13:47;12.30;99.90
9371;DHT22;4725;48.384;8.984;2023-05-10T12:16:17;12.50;99.90
9371;DHT22;4725;48.384;8.984;2023-05-10T12:18:44;12.60;99.90
9371;DHT22;4725;48.384;8.984;2023-05-10T12:21:11;13.00;99.90
9371;DHT22;4725;48.384;8.984;2023-05-10T12:23:39;13.00;99.90
9371;DHT22;4725;48.384;8.984;2023-05-10T12:26:07;12.90;99.90
9371;DHT22;4725;48.384;8.984;2023-05-10T12:28:37;13.40;99.90
9371;DHT22;4725;48.384;8.984;2023-05-10T12:31:05;13.40;99.90
9371;DHT22;4725;48.384;8.984;2023-05-10T12:33:36;13.60;99.90
9371;DHT22;4725;48.384;8.984;2023-05-10T12:36:05;13.70;99.90
9371;DHT22;4725;48.384;8.984;2023-05-10T12:38:33;13.90;99.90
9371;DHT22;4725;48.384;8.984;2023-05-10T12:41:01;14.30;99.90
9371;DHT22;4725;48.384;8.984;2023-05-10T12:43:29;14.40;99.90
9371;DHT22;4725;48.384;8.984;2023-05-10T12:45:57;15.00;99.90
9371;DHT22;4725;48.384;8.984;2023-05-10T12:48:24;15.00;99.90
9371;DHT22;4725;48.384;8.984;2023-05-10T12:50:51;14.90;99.90
9371;DHT22;4725;48.384;8.984;2023-05-10T12:53:18;14.80;99.90
9371;DHT22;4725;48.384;8.984;2023-05-10T12:55:45;15.10;99.90
9371;DHT22;4725;48.384;8.984;2023-05-10T12:58:12;15.20;99.90
9371;DHT22;4725;48.384;8.984;2023-05-10T13:00:39;15.70;99.90
9371;DHT22;4725;48.384;8.984;2023-05-10T13:03:07;15.90;99.90
9371;DHT22;4725;48.384;8.984;2023-05-10T13:05:34;16.70;99.90
9371;DHT22;4725;48.384;8.984;2023-05-10T13:08:01;16.80;99.90
9371;DHT22;4725;48.384;8.984;2023-05-10T13:10:29;16.70;99.90
9371;DHT22;4725;48.384;8.984;2023-05-10T13:12:56;16.40;99.90
9371;DHT22;4725;48.384;8.984;2023-05-10T13:15:23;16.10;99.90
9371;DHT22;4725;48.384;8.984;2023-05-10T13:17:50;16.00;99.90
9371;DHT22;4725;48.384;8.984;2023-05-10T13:20:19;16.40;99.90
9371;DHT22;4725;48.384;8.984;2023-05-10T13:22:46;16.80;99.90
9371;DHT22;4725;48.384;8.984;2023-05-10T13:25:13;16.60;99.90
9371;DHT22;4725;48.384;8.984;2023-05-10T13:27:40;16.50;99.90
9371;DHT22;4725;48.384;8.984;2023-05-10T13:30:08;16.30;99.90
9371;DHT22;4725;48.384;8.984;2023-05-10T13:32:35;16.40;99.90
9371;DHT22;4725;48.384;8.984;2023-05-10T13:35:02;17.00;99.90
9371;DHT22;4725;48.384;8.984;2023-05-10T13:37:31;17.10;99.90
9371;DHT22;4725;48.384;8.984;2023-05-10T13:40:00;17.30;99.90
9371;DHT22;4725;48.384;8.984;2023-05-10T13:42:29;17.50;99.90
9371;DHT22;4725;48.384;8.984;2023-05-10T13:44:57;17.80;99.90
9371;DHT22;4725;48.384;8.984;2023-05-10T13:47:24;17.80;99.90
9371;DHT22;4725;48.384;8.984;2023-05-10T13:49:50;17.50;99.90
9371;DHT22;4725;48.384;8.984;2023-05-10T13:52:17;17.10;99.90
9371;DHT22;4725;48.384;8.984;2023-05-10T13:54:46;17.00;99.90
9371;DHT22;4725;48.384;8.984;2023-05-10T13:57:12;17.30;99.90
9371;DHT22;4725;48.384;8.984;2023-05-10T13:59:42;16.40;99.90
9371;DHT22;4725;48.384;8.984;2023-05-10T14:02:08;16.30;99.90
9371;DHT22;4725;48.384;8.984;2023-05-10T14:04:36;15.80;99.90
9371;DHT22;4725;48.384;8.984;2023-05-10T14:07:03;16.10;99.90
9371;DHT22;4725;48.384;8.984;2023-05-10T14:09:30;16.20;99.90
9371;DHT22;4725;48.384;8.984;2023-05-10T14:14:25;16.90;99.90
9371;DHT22;4725;48.384;8.984;2023-05-10T14:16:53;16.80;99.90
9371;DHT22;4725;48.384;8.984;2023-05-10T14:19:20;16.60;99.90
9371;DHT22;4725;48.384;8.984;2023-05-10T14:21:47;16.40;99.90
9371;DHT22;4725;48.384;8.984;2023-05-10T14:24:14;16.40;99.90
9371;DHT22;4725;48.384;8.984;2023-05-10T14:26:41;15.80;99.90
9371;DHT22;4725;48.384;8.984;2023-05-10T14:29:09;15.80;99.90
9371;DHT22;4725;48.384;8.984;2023-05-10T14:31:36;16.20;99.90
9371;DHT22;4725;48.384;8.984;2023-05-10T14:34:02;16.10;99.90
9371;DHT22;4725;48.384;8.984;2023-05-10T14:36:29;16.60;99.90
9371;DHT22;4725;48.384;8.984;2023-05-10T14:38:57;17.10;99.90
9371;DHT22;4725;48.384;8.984;2023-05-10T14:41:24;17.10;99.90
9371;DHT22;4725;48.384;8.984;2023-05-10T14:43:50;17.30;99.90
9371;DHT22;4725;48.384;8.984;2023-05-10T14:46:19;17.30;99.90
9371;DHT22;4725;48.384;8.984;2023-05-10T14:48:46;17.40;99.90
9371;DHT22;4725;48.384;8.984;2023-05-10T14:51:13;17.40;99.90
9371;DHT22;4725;48.384;8.984;2023-05-10T14:53:40;17.60;99.90
9371;DHT22;4725;48.384;8.984;2023-05-10T14:56:07;16.70;99.90
9371;DHT22;4725;48.384;8.984;2023-05-10T14:58:33;16.70;99.90
9371;DHT22;4725;48.384;8.984;2023-05-10T15:01:00;16.80;99.90
9371;DHT22;4725;48.384;8.984;2023-05-10T15:03:29;16.70;99.90
9371;DHT22;4725;48.384;8.984;2023-05-10T15:05:56;16.00;99.90
9371;DHT22;4725;48.384;8.984;2023-05-10T15:10:50;15.90;99.90
9371;DHT22;4725;48.384;8.984;2023-05-10T15:13:17;15.70;99.90
9371;DHT22;4725;48.384;8.984;2023-05-10T15:15:44;15.80;99.90
9371;DHT22;4725;48.384;8.984;2023-05-10T15:18:11;15.90;99.90
9371;DHT22;4725;48.384;8.984;2023-05-10T15:23:06;15.60;99.90
9371;DHT22;4725;48.384;8.984;2023-05-10T15:25:33;15.50;99.90
9371;DHT22;4725;48.384;8.984;2023-05-10T15:28:03;15.40;99.90
9371;DHT22;4725;48.384;8.984;2023-05-10T15:30:30;15.50;99.90
9371;DHT22;4725;48.384;8.984;2023-05-10T15:32:57;15.60;99.90
9371;DHT22;4725;48.384;8.984;2023-05-10T15:35:23;15.40;99.90
9371;DHT22;4725;48.384;8.984;2023-05-10T15:37:53;15.30;99.90
9371;DHT22;4725;48.384;8.984;2023-05-10T15:40:20;14.90;99.90
9371;DHT22;4725;48.384;8.984;2023-05-10T15:42:47;14.80;99.90
9371;DHT22;4725;48.384;8.984;2023-05-10T15:45:14;14.80;99.90
9371;DHT22;4725;48.384;8.984;2023-05-10T15:47:41;14.80;99.90
9371;DHT22;4725;48.384;8.984;2023-05-10T15:50:10;14.50;99.90
9371;DHT22;4725;48.384;8.984;2023-05-10T15:52:36;14.30;99.90
9371;DHT22;4725;48.384;8.984;2023-05-10T15:55:06;14.40;99.90
9371;DHT22;4725;48.384;8.984;2023-05-10T15:57:37;14.20;99.90
9371;DHT22;4725;48.384;8.984;2023-05-10T16:00:05;14.10;99.90
9371;DHT22;4725;48.384;8.984;2023-05-10T16:02:32;14.30;99.90
9371;DHT22;4725;48.384;8.984;2023-05-10T16:04:59;14.20;99.90
9371;DHT22;4725;48.384;8.984;2023-05-10T16:07:26;14.20;99.90
9371;DHT22;4725;48.384;8.984;2023-05-10T16:09:53;14.30;99.90
9371;DHT22;4725;48.384;8.984;2023-05-10T16:12:21;14.30;99.90
9371;DHT22;4725;48.384;8.984;2023-05-10T16:14:48;14.20;99.90
9371;DHT22;4725;48.384;8.984;2023-05-10T16:17:15;14.30;99.90
9371;DHT22;4725;48.384;8.984;2023-05-10T16:19:42;14.20;99.90
9371;DHT22;4725;48.384;8.984;2023-05-10T16:22:09;14.40;99.90
9371;DHT22;4725;48.384;8.984;2023-05-10T16:24:36;14.50;99.90
9371;DHT22;4725;48.384;8.984;2023-05-10T16:27:03;14.60;99.90
9371;DHT22;4725;48.384;8.984;2023-05-10T16:29:31;14.40;99.90
9371;DHT22;4725;48.384;8.984;2023-05-10T16:31:58;14.40;99.90
9371;DHT22;4725;48.384;8.984;2023-05-10T16:34:26;14.40;99.90
9371;DHT22;4725;48.384;8.984;2023-05-10T16:36:53;14.40;99.90
9371;DHT22;4725;48.384;8.984;2023-05-10T16:39:20;14.60;99.90
9371;DHT22;4725;48.384;8.984;2023-05-10T16:41:47;14.70;99.90
9371;DHT22;4725;48.384;8.984;2023-05-10T16:44:14;14.60;99.90
9371;DHT22;4725;48.384;8.984;2023-05-10T16:46:42;13.90;99.90